Startpagina
METAR-TAF:

METAR-TAF

Vliegvelden :

Aeroporto de Congonhas/São Paulo

São Paulo, São Paulo, Brazilië

breedte: 23-37S, lengte: 046-39W, hoogte: 803 m

Actueel weer

Dit bericht is 37 minuten geleden gemaakt, om 19:00 UTC
Wind 13 kt uit het zuiden
Temperatuur 21°C
Vochtigheid 78%
Druk 1009 hPa
Zicht: 8000 m
Gebroken wolken op 1300 ft
Gebroken wolken op 2000 ft

METAR: SBSP 241900Z 18013KT 8000 BKN013 BKN020 21/17 Q1009

Tijdstip: 16:37 (19:37 UTC)

Verwachting

Dit bericht is 3 uur en het 37 minuten geleden gemaakt, om 16:00 UTC
Verwachting geldig van 24 om 18 UTC tot 25 om 06 UTC
Wind 7 kt uit het zuiden
Zicht 10 km of meer
Gebroken wolken op 2000 ft
Kans 30%
van 24 om 18 UTC tot 24 om 21 UTC
Zicht: 8000 m
Gebroken wolken op 1000 ft
regen
Wijzigt naar
van 24 om 21 UTC tot 24 om 23 UTC
Wind 8 kt uit het zuidzuidoosten
Gebroken wolken op 1600 ft

TAF: SBSP 241600Z 2418/2506 19007KT 9999 BKN020 TX22/2418Z TN19/2505Z PROB30 2418/2421 8000 RA BKN010 BECMG 2421/2423 16008KT BKN016 RMK PGG

Waarnemingen en weersverwachtingen van meer dan 4000 vliegvelden (METAR en TAF).

De beschikbare stations zijn de gele en rode punten op de kaart.

Ga met uw muis naar het station om de naam te zien.

Klik dan om waarnemingen en weersverwachtingen te zien.

kaart wijzigen: klik op de groene knoppen met een zwart kruis om in te zoomen, op de groene knop met een streepje om uit te zoomen of op de groene pijlen voor aangrenzende kaarten.


METAR-TAF: